createdAt,value
2023-02-25T00:01:51.183Z,95058.78
2023-02-25T00:04:30.742Z,95053.78
2023-02-25T00:06:58.845Z,95051.16
2023-02-25T00:09:27.160Z,95050.44
2023-02-25T00:11:55.333Z,95052.97
2023-02-25T00:14:23.588Z,95048.50
2023-02-25T00:16:55.995Z,95045.78
2023-02-25T00:19:24.848Z,95057.72
2023-02-25T00:21:54.522Z,95051.31
2023-02-25T00:24:22.428Z,95050.41
2023-02-25T00:26:50.707Z,95052.59
2023-02-25T00:29:18.831Z,95046.78
2023-02-25T00:31:47.249Z,95055.06
2023-02-25T00:34:17.841Z,95053.72
2023-02-25T00:36:45.912Z,95050.06
2023-02-25T00:39:15.703Z,95052.38
2023-02-25T00:41:43.974Z,95054.78
2023-02-25T00:44:13.179Z,95049.22
2023-02-25T00:46:41.488Z,95052.53
2023-02-25T00:49:10.660Z,95054.47
2023-02-25T00:51:39.824Z,95056.16
2023-02-25T00:54:08.068Z,95056.16
2023-02-25T00:56:37.509Z,95050.81
2023-02-25T00:59:05.699Z,95053.69
2023-02-25T01:01:34.954Z,95049.31
2023-02-25T01:04:03.306Z,95041.13
2023-02-25T01:06:34.020Z,95042.28
2023-02-25T01:09:02.281Z,95049.44
2023-02-25T01:11:32.820Z,95050.94
2023-02-25T01:14:04.424Z,95050.63
2023-02-25T01:16:34.671Z,95044.91
2023-02-25T01:19:05.607Z,95050.31
2023-02-25T01:21:36.786Z,95043.72
2023-02-25T01:24:07.719Z,95040.97
2023-02-25T01:26:37.727Z,95036.13
2023-02-25T01:29:10.037Z,95041.31
2023-02-25T01:31:38.482Z,95035.13
2023-02-25T01:34:09.162Z,95038.50
2023-02-25T01:36:38.115Z,95040.81
2023-02-25T01:39:08.358Z,95037.56
2023-02-25T01:41:38.801Z,95040.69
2023-02-25T01:44:12.953Z,95051.50
2023-02-25T01:46:42.600Z,95045.19
2023-02-25T01:49:16.298Z,95050.31
2023-02-25T01:51:47.224Z,95050.19
2023-02-25T01:54:16.813Z,95038.25
2023-02-25T01:56:50.031Z,95044.84
2023-02-25T01:59:22.255Z,95033.97
2023-02-25T02:01:50.946Z,95035.97
2023-02-25T02:04:23.264Z,95031.75
2023-02-25T02:06:52.866Z,95037.25
2023-02-25T02:09:23.961Z,95024.84
2023-02-25T02:11:52.486Z,95016.66
2023-02-25T02:14:27.789Z,95019.28
2023-02-25T02:17:27.309Z,95003.94
2023-02-25T02:20:11.502Z,95000.22
2023-02-25T02:22:51.157Z,94996.00
2023-02-25T02:25:53.576Z,94999.13
2023-02-25T02:28:55.168Z,94995.72
2023-02-25T02:31:37.544Z,94989.88
2023-02-25T02:34:16.705Z,94993.81
2023-02-25T02:36:57.460Z,94980.78
2023-02-25T02:39:33.039Z,94985.78
2023-02-25T02:42:04.625Z,94986.25
2023-02-25T02:44:42.111Z,94981.38
2023-02-25T02:47:18.241Z,94991.91
2023-02-25T02:49:51.709Z,94979.97
2023-02-25T02:52:25.876Z,94987.63
2023-02-25T02:54:59.177Z,94984.47
2023-02-25T02:57:28.918Z,94978.84
2023-02-25T03:00:01.684Z,94971.69
2023-02-25T03:02:36.745Z,94978.72
2023-02-25T03:05:09.760Z,94973.97
2023-02-25T03:07:44.531Z,94976.78
2023-02-25T03:10:17.168Z,94973.50
2023-02-25T03:22:13.596Z,94976.72
2023-02-25T03:28:58.008Z,94968.75
2023-02-25T03:31:42.540Z,94967.22
2023-02-25T03:34:19.154Z,94975.91
2023-02-25T03:36:55.280Z,94980.50
2023-02-25T03:44:00.269Z,94987.22
2023-02-25T03:46:32.618Z,94992.69
2023-02-25T03:58:45.332Z,94987.19
2023-02-25T04:01:17.345Z,94982.50
2023-02-25T04:03:46.757Z,94984.09
2023-02-25T04:06:16.534Z,94987.53
2023-02-25T04:08:45.499Z,94983.50
2023-02-25T04:20:43.235Z,94982.34
2023-02-25T04:23:14.432Z,94989.13
2023-02-25T04:25:43.406Z,94984.06
2023-02-25T04:28:12.274Z,94996.72
2023-02-25T04:30:40.831Z,94985.59
2023-02-25T04:37:54.421Z,94994.50
2023-02-25T04:40:24.232Z,94980.22
2023-02-25T04:42:53.075Z,94994.09
2023-02-25T05:07:11.511Z,95002.94
2023-02-25T05:09:41.348Z,95002.47
2023-02-25T05:12:09.597Z,95008.44
2023-02-25T05:14:38.915Z,95019.16
2023-02-25T05:17:07.428Z,95015.56
2023-02-25T05:19:36.086Z,95020.06
2023-02-25T05:31:30.442Z,95022.00
2023-02-25T05:33:59.516Z,95016.19
2023-02-25T05:36:28.610Z,95014.66
2023-02-25T05:43:29.789Z,95039.22
2023-02-25T05:46:00.045Z,95029.28
2023-02-25T05:48:31.692Z,95025.09
2023-02-25T05:51:05.275Z,95022.59
2023-02-25T05:53:33.906Z,95029.47
2023-02-25T06:18:58.172Z,95056.13
2023-02-25T06:21:27.315Z,95055.00
2023-02-25T06:28:46.203Z,95070.16
2023-02-25T06:40:36.198Z,95092.50
2023-02-25T06:52:46.980Z,95111.03
2023-02-25T06:55:15.852Z,95118.31
2023-02-25T06:57:44.321Z,95117.50
2023-02-25T07:04:44.188Z,95128.06
2023-02-25T07:07:13.237Z,95128.00
2023-02-25T07:19:07.164Z,95149.44
2023-02-25T07:21:36.145Z,95158.69
2023-02-25T07:24:05.256Z,95153.69
2023-02-25T07:31:14.921Z,95161.19
2023-02-25T07:33:43.529Z,95168.66
2023-02-25T07:45:38.476Z,95191.97
2023-02-25T07:52:56.487Z,95196.47
2023-02-25T08:14:23.099Z,95206.59
2023-02-25T08:16:53.475Z,95206.88
2023-02-25T08:21:22.174Z,95225.72
2023-02-25T08:23:52.112Z,95223.13
2023-02-25T08:26:22.646Z,95220.09
2023-02-25T08:33:49.818Z,95234.28
2023-02-25T08:36:20.986Z,95241.22
2023-02-25T08:38:50.284Z,95226.97
2023-02-25T08:41:19.554Z,95224.38
2023-02-25T08:58:31.559Z,95247.53
2023-02-25T09:01:02.050Z,95251.09
2023-02-25T09:03:30.730Z,95255.59
2023-02-25T09:15:18.814Z,95275.63
2023-02-25T09:17:53.264Z,95273.50
2023-02-25T09:20:22.035Z,95273.81
2023-02-25T09:36:41.120Z,95269.78
2023-02-25T10:18:29.541Z,95311.84
2023-02-25T10:21:13.773Z,95317.44
2023-02-25T10:28:37.569Z,95329.44
2023-02-25T10:31:10.297Z,95335.00
2023-02-25T11:08:34.777Z,95350.47
2023-02-25T11:11:23.024Z,95352.13
2023-02-25T12:45:13.599Z,95445.81
2023-02-25T13:16:15.019Z,95480.34
2023-02-25T13:18:51.554Z,95497.03
2023-02-25T13:40:21.004Z,95498.66
2023-02-25T13:53:19.353Z,95527.19
2023-02-25T13:56:24.354Z,95543.28
2023-02-25T14:14:34.854Z,57013.78
2023-02-25T15:27:25.659Z,57013.78
2023-02-25T15:31:28.710Z,57013.78
2023-02-25T15:51:56.881Z,57013.78
2023-02-25T16:01:39.917Z,57013.78
2023-02-25T16:11:08.236Z,57013.78
2023-02-25T16:14:37.839Z,57013.78
2023-02-25T16:18:15.574Z,57013.78
2023-02-25T16:21:47.316Z,57013.78
2023-02-25T16:31:23.202Z,57013.78
2023-02-25T16:41:16.638Z,57013.78
2023-02-25T17:31:33.990Z,57013.78
2023-02-25T17:36:44.540Z,57013.78
2023-02-25T17:47:35.917Z,57013.78
2023-02-25T17:51:13.975Z,57013.78
2023-02-25T18:00:33.520Z,57013.78
2023-02-25T18:04:13.079Z,57013.78
2023-02-25T18:18:24.212Z,57013.78
2023-02-25T18:33:28.493Z,57013.78
2023-02-25T18:36:55.723Z,57013.78
2023-02-25T18:40:26.988Z,57013.78
2023-02-25T20:31:38.934Z,57013.78
2023-02-25T20:35:06.466Z,57013.78
2023-02-25T20:38:39.758Z,57013.78
2023-02-25T20:42:08.321Z,57013.78
2023-02-25T20:45:36.025Z,57013.78
2023-02-25T20:49:05.170Z,57013.78
2023-02-25T20:52:32.612Z,57013.78
2023-02-25T20:55:59.393Z,57013.78
2023-02-25T20:59:26.192Z,57013.78
2023-02-25T21:02:52.877Z,57013.78
2023-02-25T21:06:23.015Z,57013.78
2023-02-25T21:09:49.977Z,57013.78
2023-02-25T21:13:17.354Z,57013.78
2023-02-25T21:22:09.623Z,57013.78
2023-02-25T21:36:23.928Z,57013.78
2023-02-25T21:39:51.738Z,57013.78
2023-02-25T21:43:19.249Z,57013.78
2023-02-25T21:57:40.596Z,57013.78
2023-02-25T22:01:15.630Z,57013.78
2023-02-25T22:04:43.092Z,57013.78
2023-02-25T22:08:10.346Z,57013.78
2023-02-25T22:11:38.676Z,57013.78
2023-02-25T22:15:08.868Z,57013.78
2023-02-25T22:18:37.095Z,57013.78
2023-02-25T22:22:08.792Z,57013.78
2023-02-25T22:25:35.669Z,57013.78
2023-02-25T22:57:34.854Z,57013.78
2023-02-25T23:01:08.340Z,57013.78
2023-02-25T23:04:35.570Z,57013.78
2023-02-25T23:08:02.871Z,57013.78
2023-02-25T23:11:31.617Z,57013.78
2023-02-25T23:22:02.800Z,57013.78
2023-02-25T23:26:44.674Z,57013.78
2023-02-25T23:30:14.793Z,57013.78
2023-02-25T23:45:38.839Z,57013.78
2023-02-25T23:49:08.923Z,57013.78
2023-02-25T23:52:36.378Z,57013.78
2023-02-25T23:56:07.146Z,57013.78
2023-02-25T23:59:35.055Z,57013.78
